createdAt,value
2023-04-06T00:00:14.396Z,55.44
2023-04-06T00:02:44.514Z,55.68
2023-04-06T00:05:14.660Z,56.11
2023-04-06T00:07:44.836Z,55.35
2023-04-06T00:10:15.179Z,55.45
2023-04-06T00:12:45.287Z,55.43
2023-04-06T00:15:15.779Z,55.60
2023-04-06T00:17:46.054Z,55.29
2023-04-06T00:20:16.957Z,55.05
2023-04-06T00:22:47.476Z,55.32
2023-04-06T00:25:17.797Z,55.52
2023-04-06T00:31:47.479Z,55.15
2023-04-06T00:34:17.634Z,55.21
2023-04-06T00:36:47.658Z,55.44
2023-04-06T00:39:20.346Z,55.80
2023-04-06T00:41:53.643Z,55.53
2023-04-06T00:44:23.910Z,55.37
2023-04-06T00:46:54.022Z,55.60
2023-04-06T00:49:24.475Z,55.55
2023-04-06T00:51:54.630Z,55.88
2023-04-06T00:54:24.772Z,55.69
2023-04-06T00:56:55.102Z,55.43
2023-04-06T00:59:25.647Z,55.64
2023-04-06T01:01:56.434Z,55.23
2023-04-06T01:04:26.657Z,55.20
2023-04-06T01:06:56.750Z,55.07
2023-04-06T01:09:29.783Z,55.46
2023-04-06T01:12:00.307Z,55.64
2023-04-06T01:14:30.757Z,55.10
2023-04-06T01:17:01.774Z,55.19
2023-04-06T01:19:32.120Z,54.78
2023-04-06T01:22:02.269Z,55.35
2023-04-06T01:24:32.525Z,55.50
2023-04-06T01:27:02.850Z,55.35
2023-04-06T01:29:33.086Z,55.15
2023-04-06T01:32:03.873Z,55.56
2023-04-06T01:34:33.973Z,55.64
2023-04-06T01:37:04.160Z,55.39
2023-04-06T01:39:34.282Z,54.98
2023-04-06T01:42:04.413Z,54.87
2023-04-06T01:44:34.528Z,55.25
2023-04-06T01:47:04.760Z,55.08
2023-04-06T01:49:35.143Z,55.46
2023-04-06T01:52:05.654Z,55.67
2023-04-06T01:54:35.869Z,55.44
2023-04-06T01:57:06.194Z,55.53
2023-04-06T01:59:36.514Z,55.73
2023-04-06T02:02:06.800Z,55.38
2023-04-06T02:04:36.942Z,55.25
2023-04-06T02:07:07.080Z,55.68
2023-04-06T02:09:37.328Z,55.45
2023-04-06T02:12:07.402Z,54.84
2023-04-06T02:14:37.539Z,55.12
2023-04-06T02:17:07.655Z,55.13
2023-04-06T02:19:37.750Z,55.62
2023-04-06T02:22:07.962Z,55.40
2023-04-06T02:24:38.024Z,55.28
2023-04-06T02:27:08.169Z,55.38
2023-04-06T02:29:38.324Z,55.91
2023-04-06T02:32:08.507Z,55.54
2023-04-06T02:34:38.600Z,55.33
2023-04-06T02:37:08.724Z,55.51
2023-04-06T02:39:38.944Z,55.59
2023-04-06T02:42:09.959Z,55.45
2023-04-06T02:44:40.125Z,55.41
2023-04-06T02:47:10.354Z,55.22
2023-04-06T02:49:40.677Z,55.86
2023-04-06T02:52:10.796Z,55.81
2023-04-06T02:54:41.037Z,55.96
2023-04-06T02:57:11.175Z,55.03
2023-04-06T02:59:41.388Z,55.34
2023-04-06T03:02:11.897Z,55.65
2023-04-06T03:04:41.936Z,55.31
2023-04-06T03:07:12.186Z,55.02
2023-04-06T03:09:43.317Z,55.17
2023-04-06T03:12:13.482Z,55.48
2023-04-06T03:14:43.593Z,55.66
2023-04-06T03:17:13.737Z,55.33
2023-04-06T03:19:43.974Z,55.31
2023-04-06T03:22:14.003Z,55.79
2023-04-06T03:24:44.058Z,55.27
2023-04-06T03:27:14.181Z,55.34
2023-04-06T03:29:44.564Z,55.07
2023-04-06T03:32:14.589Z,55.89
2023-04-06T03:34:44.804Z,55.34
2023-04-06T03:37:14.907Z,55.38
2023-04-06T03:39:45.049Z,55.46
2023-04-06T03:42:15.176Z,55.45
2023-04-06T03:44:45.764Z,55.86
2023-04-06T03:47:15.885Z,55.94
2023-04-06T03:49:46.072Z,55.40
2023-04-06T03:52:16.458Z,55.49
2023-04-06T03:54:46.510Z,55.81
2023-04-06T03:57:16.683Z,55.23
2023-04-06T03:59:46.911Z,55.50
2023-04-06T04:02:17.040Z,55.82
2023-04-06T04:04:47.164Z,55.42
2023-04-06T04:07:17.227Z,55.73
2023-04-06T04:09:47.293Z,55.63
2023-04-06T04:12:17.880Z,55.71
2023-04-06T04:14:47.982Z,56.01
2023-04-06T04:17:18.089Z,55.68
2023-04-06T04:19:48.284Z,55.54
2023-04-06T04:22:18.482Z,55.84
2023-04-06T04:24:48.577Z,56.25
2023-04-06T04:27:18.731Z,55.83
2023-04-06T04:29:48.801Z,56.19
2023-04-06T04:32:19.116Z,56.08
2023-04-06T04:34:49.317Z,56.28
2023-04-06T04:37:19.392Z,56.29
2023-04-06T04:39:49.511Z,56.08
2023-04-06T04:42:19.632Z,55.76
2023-04-06T04:44:49.705Z,56.13
2023-04-06T04:47:20.264Z,56.41
2023-04-06T04:49:50.599Z,56.27
2023-04-06T04:52:20.853Z,55.96
2023-04-06T04:54:51.105Z,56.44
2023-04-06T04:57:21.388Z,56.07
2023-04-06T04:59:52.110Z,56.52
2023-04-06T05:02:22.456Z,56.66
2023-04-06T05:04:52.660Z,56.28
2023-04-06T05:07:22.856Z,56.39
2023-04-06T05:09:53.064Z,56.80
2023-04-06T05:12:23.297Z,56.39
2023-04-06T05:14:54.184Z,57.49
2023-04-06T05:17:24.373Z,57.53
2023-04-06T05:19:54.502Z,57.60
2023-04-06T05:22:24.640Z,57.85
2023-04-06T05:24:56.726Z,57.33
2023-04-06T05:27:32.687Z,58.55
2023-04-06T05:30:03.328Z,58.40
2023-04-06T05:32:33.603Z,58.54
2023-04-06T05:35:03.992Z,58.94
2023-04-06T05:37:35.849Z,58.84
2023-04-06T05:40:06.779Z,58.74
2023-04-06T05:42:40.000Z,58.63
2023-04-06T05:45:20.487Z,59.31
2023-04-06T05:47:50.687Z,59.31
2023-04-06T05:50:21.004Z,59.59
2023-04-06T05:52:51.142Z,59.63
2023-04-06T05:55:21.226Z,59.78
2023-04-06T05:57:51.377Z,59.69
2023-04-06T06:00:21.837Z,59.69
2023-04-06T06:02:52.015Z,59.54
2023-04-06T06:05:22.451Z,59.63
2023-04-06T06:07:53.030Z,59.71
2023-04-06T06:10:23.138Z,59.53
2023-04-06T06:12:53.217Z,59.92
2023-04-06T06:15:23.332Z,59.74
2023-04-06T06:17:53.479Z,60.35
2023-04-06T06:20:23.702Z,59.94
2023-04-06T06:22:54.271Z,60.20
2023-04-06T06:25:24.504Z,60.28
2023-04-06T06:27:54.675Z,60.39
2023-04-06T06:30:24.737Z,60.24
2023-04-06T06:32:54.962Z,60.60
2023-04-06T06:35:25.316Z,60.44
2023-04-06T06:37:55.868Z,60.12
2023-04-06T06:40:28.455Z,60.39
2023-04-06T06:42:58.772Z,59.27
2023-04-06T06:45:30.796Z,59.52
2023-04-06T06:48:01.296Z,59.82
2023-04-06T06:50:31.567Z,59.93
2023-04-06T06:53:01.706Z,59.83
2023-04-06T06:55:32.036Z,59.40
2023-04-06T06:58:02.266Z,58.95
2023-04-06T07:00:32.371Z,59.51
2023-04-06T07:03:02.951Z,59.09
2023-04-06T07:05:33.926Z,59.18
2023-04-06T07:08:04.293Z,58.35
2023-04-06T07:10:34.422Z,58.20
2023-04-06T07:13:04.522Z,58.50
2023-04-06T07:15:34.625Z,58.02
2023-04-06T07:18:04.847Z,57.41
2023-04-06T07:20:34.922Z,57.48
2023-04-06T07:23:08.594Z,57.16
2023-04-06T07:25:38.832Z,56.83
2023-04-06T07:28:09.032Z,57.21
2023-04-06T07:30:39.720Z,56.47
2023-04-06T07:33:09.912Z,56.53
2023-04-06T07:35:40.613Z,56.03
2023-04-06T07:38:10.807Z,56.00
2023-04-06T07:40:41.046Z,56.15
2023-04-06T07:43:11.139Z,55.72
2023-04-06T07:45:41.327Z,55.19
2023-04-06T07:48:11.471Z,55.63
2023-04-06T07:50:42.037Z,55.61
2023-04-06T07:53:12.255Z,55.15
2023-04-06T07:55:42.417Z,54.44
2023-04-06T07:58:16.943Z,54.89
2023-04-06T08:00:47.150Z,55.39
2023-04-06T08:03:18.086Z,54.67
2023-04-06T08:05:48.271Z,53.81
2023-04-06T08:08:18.353Z,53.73
2023-04-06T08:10:49.896Z,53.87
2023-04-06T08:13:20.660Z,53.52
2023-04-06T08:15:50.863Z,53.43
2023-04-06T08:18:21.217Z,53.28
2023-04-06T08:20:51.456Z,52.62
2023-04-06T08:23:21.630Z,53.00
2023-04-06T08:25:53.889Z,52.29
2023-04-06T08:28:24.146Z,52.24
2023-04-06T08:30:54.413Z,52.65
2023-04-06T08:33:24.572Z,52.62
2023-04-06T08:35:54.752Z,52.53
2023-04-06T08:38:24.953Z,52.32
2023-04-06T08:40:55.193Z,51.84
2023-04-06T08:43:28.631Z,50.96
2023-04-06T08:46:00.294Z,50.44
2023-04-06T08:48:30.711Z,50.16
2023-04-06T08:51:00.910Z,49.53
2023-04-06T08:53:31.042Z,49.23
2023-04-06T08:56:02.390Z,48.93
2023-04-06T08:58:38.977Z,47.25
2023-04-06T09:01:15.203Z,47.42
2023-04-06T09:03:46.206Z,48.75
2023-04-06T09:06:16.734Z,48.74
2023-04-06T09:08:46.916Z,48.87
2023-04-06T09:11:17.152Z,48.80
2023-04-06T09:13:49.606Z,48.53
2023-04-06T09:16:20.385Z,48.88
2023-04-06T09:18:51.263Z,49.16
2023-04-06T09:21:23.754Z,49.48
2023-04-06T09:24:02.751Z,48.38
2023-04-06T09:26:34.962Z,49.13
2023-04-06T09:29:05.387Z,49.52
2023-04-06T09:31:35.597Z,49.40
2023-04-06T09:34:06.055Z,49.34
2023-04-06T09:36:42.283Z,49.47
2023-04-06T09:39:14.567Z,49.30
2023-04-06T09:41:51.592Z,49.18
2023-04-06T09:44:21.597Z,48.19
2023-04-06T09:47:00.381Z,49.17
2023-04-06T09:49:35.247Z,49.72
2023-04-06T09:52:10.077Z,49.55
2023-04-06T09:54:42.032Z,49.70
2023-04-06T09:57:30.249Z,49.50
2023-04-06T10:00:12.564Z,50.23
2023-04-06T10:03:07.827Z,49.92
2023-04-06T10:05:48.094Z,49.62
2023-04-06T10:08:20.188Z,50.19
2023-04-06T10:10:51.956Z,50.32
2023-04-06T10:13:22.754Z,50.37
2023-04-06T10:15:53.472Z,50.32
2023-04-06T10:18:24.167Z,49.48
2023-04-06T10:21:17.396Z,48.90
2023-04-06T10:23:55.093Z,49.08
2023-04-06T10:26:25.206Z,49.52
2023-04-06T10:28:56.475Z,49.49
2023-04-06T10:31:28.632Z,49.29
2023-04-06T10:34:01.235Z,49.00
2023-04-06T10:36:35.806Z,48.34
2023-04-06T10:39:07.607Z,49.21
2023-04-06T10:41:45.959Z,47.72
2023-04-06T10:44:22.654Z,47.65
2023-04-06T10:47:01.981Z,47.93
2023-04-06T10:49:32.066Z,48.34
2023-04-06T10:52:02.260Z,47.91
2023-04-06T10:54:33.905Z,48.18
2023-04-06T10:57:04.150Z,47.95
2023-04-06T10:59:34.460Z,47.92
2023-04-06T11:02:04.684Z,47.57
2023-04-06T11:04:35.219Z,47.35
2023-04-06T11:07:05.402Z,47.29
2023-04-06T11:09:37.848Z,47.29
2023-04-06T11:12:07.953Z,47.56
2023-04-06T11:14:38.385Z,47.54
2023-04-06T11:17:08.774Z,47.57
2023-04-06T11:19:39.043Z,47.84
2023-04-06T11:22:09.512Z,47.77
2023-04-06T11:24:39.646Z,47.67
2023-04-06T11:27:10.092Z,47.70
2023-04-06T11:29:45.057Z,47.53
2023-04-06T11:32:23.438Z,46.95
2023-04-06T11:34:53.645Z,48.03
2023-04-06T11:37:28.553Z,48.13
2023-04-06T11:39:58.956Z,48.45
2023-04-06T11:42:30.737Z,48.90
2023-04-06T11:45:01.527Z,48.54
2023-04-06T11:47:36.689Z,48.91
2023-04-06T11:50:14.849Z,48.88
2023-04-06T11:52:45.121Z,49.31
2023-04-06T11:55:16.944Z,48.89
2023-04-06T11:57:47.245Z,49.05
2023-04-06T12:00:17.996Z,49.36
2023-04-06T12:02:51.269Z,48.90
2023-04-06T12:05:21.620Z,48.85
2023-04-06T12:07:51.777Z,49.08
2023-04-06T12:10:22.052Z,49.27
2023-04-06T12:12:52.230Z,49.62
2023-04-06T12:15:23.468Z,49.73
2023-04-06T12:17:53.753Z,49.94
2023-04-06T12:20:27.626Z,49.44
2023-04-06T12:22:58.025Z,49.55
2023-04-06T12:25:28.869Z,49.37
2023-04-06T12:28:00.151Z,49.38
2023-04-06T12:30:30.607Z,49.56
2023-04-06T12:33:01.641Z,50.30
2023-04-06T12:35:35.889Z,50.08
2023-04-06T12:38:06.335Z,50.43
2023-04-06T12:40:40.330Z,50.80
2023-04-06T12:43:11.108Z,50.46
2023-04-06T12:45:47.481Z,50.12
2023-04-06T12:48:21.623Z,50.30
2023-04-06T12:50:59.735Z,49.44
2023-04-06T12:53:29.865Z,49.39
2023-04-06T12:56:01.692Z,49.85
2023-04-06T12:58:31.908Z,49.34
2023-04-06T13:01:04.274Z,49.44
2023-04-06T13:03:34.858Z,48.99
2023-04-06T13:06:05.132Z,48.53
2023-04-06T13:08:35.532Z,49.09
2023-04-06T13:11:06.413Z,48.68
2023-04-06T13:13:37.709Z,49.19
2023-04-06T13:16:09.536Z,49.25
2023-04-06T13:18:40.177Z,49.55
2023-04-06T13:21:15.172Z,49.46
2023-04-06T13:23:45.540Z,49.70
2023-04-06T13:26:16.376Z,50.08
2023-04-06T13:28:46.683Z,50.54
2023-04-06T13:31:16.886Z,50.51
2023-04-06T13:33:47.063Z,50.68
2023-04-06T13:36:18.314Z,50.94
2023-04-06T13:38:48.621Z,51.32
2023-04-06T13:41:22.554Z,51.65
2023-04-06T13:43:52.697Z,51.58
2023-04-06T13:46:25.236Z,51.97
2023-04-06T13:48:55.895Z,51.84
2023-04-06T13:51:27.689Z,52.01
2023-04-06T13:53:57.842Z,52.40
2023-04-06T13:56:27.953Z,52.36
2023-04-06T13:58:58.433Z,52.51
2023-04-06T14:01:28.926Z,52.53
2023-04-06T14:03:59.130Z,52.63
2023-04-06T14:06:31.600Z,52.92
2023-04-06T14:09:02.271Z,52.53
2023-04-06T14:11:32.985Z,52.82
2023-04-06T14:14:03.127Z,52.92
2023-04-06T14:16:33.284Z,53.03
2023-04-06T14:19:04.390Z,53.04
2023-04-06T14:21:34.815Z,53.05
2023-04-06T14:24:05.076Z,52.73
2023-04-06T14:26:36.468Z,53.41
2023-04-06T14:29:07.044Z,53.18
2023-04-06T14:31:38.232Z,53.32
2023-04-06T14:34:08.541Z,53.17
2023-04-06T14:36:39.597Z,52.73
2023-04-06T14:39:11.036Z,52.63
2023-04-06T14:41:42.011Z,52.94
2023-04-06T14:44:13.439Z,52.87
2023-04-06T14:46:44.189Z,53.27
2023-04-06T14:49:15.314Z,53.48
2023-04-06T14:51:45.391Z,52.73
2023-04-06T14:54:15.848Z,53.42
2023-04-06T14:56:46.020Z,53.21
2023-04-06T14:59:16.128Z,53.46
2023-04-06T15:01:46.337Z,53.91
2023-04-06T15:04:16.688Z,53.88
2023-04-06T15:06:46.852Z,54.00
2023-04-06T15:09:17.140Z,53.49
2023-04-06T15:11:47.183Z,53.57
2023-04-06T15:14:17.368Z,53.48
2023-04-06T15:16:47.410Z,53.91
2023-04-06T15:19:17.600Z,53.91
2023-04-06T15:21:47.670Z,53.29
2023-04-06T15:24:17.817Z,53.77
2023-04-06T15:26:48.090Z,53.95
2023-04-06T15:29:18.350Z,53.84
2023-04-06T15:31:48.489Z,53.74
2023-04-06T15:34:19.119Z,53.32
2023-04-06T15:36:49.309Z,53.79
2023-04-06T15:39:19.456Z,53.32
2023-04-06T15:41:49.551Z,53.18
2023-04-06T15:44:20.326Z,53.06
2023-04-06T15:46:51.932Z,53.46
2023-04-06T15:49:22.142Z,53.29
2023-04-06T15:51:52.309Z,53.44
2023-04-06T15:54:22.477Z,53.48
2023-04-06T15:56:52.729Z,53.41
2023-04-06T15:59:22.862Z,53.23
2023-04-06T16:01:54.191Z,53.34
2023-04-06T16:04:24.632Z,53.41
2023-04-06T16:06:54.757Z,53.62
2023-04-06T16:09:24.954Z,53.65
2023-04-06T16:11:55.153Z,53.42
2023-04-06T16:14:25.354Z,53.98
2023-04-06T16:16:55.591Z,53.92
2023-04-06T16:19:25.686Z,54.08
2023-04-06T16:21:55.919Z,53.64
2023-04-06T16:24:26.036Z,53.68
2023-04-06T16:26:57.599Z,53.87
2023-04-06T16:29:28.069Z,54.49
2023-04-06T16:31:58.941Z,54.36
2023-04-06T16:34:32.962Z,54.32
2023-04-06T16:37:03.200Z,54.30
2023-04-06T16:39:33.391Z,54.40
2023-04-06T16:42:03.564Z,54.70
2023-04-06T16:44:33.707Z,54.74
2023-04-06T16:47:04.400Z,55.05
2023-04-06T16:49:34.434Z,54.88
2023-04-06T16:52:06.464Z,54.94
2023-04-06T16:54:36.552Z,55.47
2023-04-06T16:57:06.822Z,55.76
2023-04-06T16:59:36.844Z,55.66
2023-04-06T17:02:07.110Z,55.91
2023-04-06T17:04:37.975Z,55.97
2023-04-06T17:07:08.152Z,55.99
2023-04-06T17:09:38.343Z,56.56
2023-04-06T17:12:09.408Z,56.17
2023-04-06T17:14:39.774Z,56.10
2023-04-06T17:17:09.938Z,56.78
2023-04-06T17:19:40.080Z,56.94
2023-04-06T17:22:10.447Z,56.41
2023-04-06T17:24:40.553Z,56.58
2023-04-06T17:27:10.626Z,57.14
2023-04-06T17:29:40.834Z,56.78
2023-04-06T17:32:12.076Z,57.30
2023-04-06T17:34:42.211Z,57.46
2023-04-06T17:37:12.498Z,57.41
2023-04-06T17:39:43.218Z,57.57
2023-04-06T17:42:13.742Z,57.66
2023-04-06T17:44:44.436Z,57.97
2023-04-06T17:47:14.848Z,58.02
2023-04-06T17:49:45.620Z,58.33
2023-04-06T17:52:15.754Z,58.22
2023-04-06T17:54:46.590Z,59.14
2023-04-06T17:57:16.812Z,59.08
2023-04-06T17:59:46.872Z,59.33
2023-04-06T18:02:17.327Z,59.64
2023-04-06T18:04:51.618Z,59.52
2023-04-06T18:07:21.942Z,59.93
2023-04-06T18:09:52.270Z,60.33
2023-04-06T18:12:22.442Z,60.09
2023-04-06T18:14:52.845Z,60.13
2023-04-06T18:17:23.028Z,60.52
2023-04-06T18:19:53.112Z,61.26
2023-04-06T18:22:23.484Z,61.12
2023-04-06T18:24:53.856Z,61.10
2023-04-06T18:27:25.586Z,61.20
2023-04-06T18:30:00.313Z,61.02
2023-04-06T18:32:30.848Z,61.30
2023-04-06T18:35:01.243Z,61.22
2023-04-06T18:37:31.423Z,61.81
2023-04-06T18:40:01.590Z,61.95
2023-04-06T18:42:31.753Z,61.69
2023-04-06T18:45:01.949Z,61.83
2023-04-06T18:47:32.188Z,62.05
2023-04-06T18:50:02.775Z,61.88
2023-04-06T18:52:32.910Z,61.90
2023-04-06T18:55:03.181Z,61.65
2023-04-06T18:57:35.559Z,62.16
2023-04-06T19:00:07.539Z,62.12
2023-04-06T19:02:38.975Z,62.37
2023-04-06T19:05:11.419Z,62.39
2023-04-06T19:07:48.186Z,62.72
2023-04-06T19:10:18.469Z,62.74
2023-04-06T19:12:49.796Z,62.60
2023-04-06T19:15:20.098Z,62.72
2023-04-06T19:17:50.669Z,62.95
2023-04-06T19:20:21.393Z,62.62
2023-04-06T19:22:51.632Z,62.54
2023-04-06T19:25:21.856Z,62.75
2023-04-06T19:27:52.028Z,63.38
2023-04-06T19:30:22.532Z,62.84
2023-04-06T19:32:53.112Z,63.43
2023-04-06T19:35:24.744Z,62.79
2023-04-06T19:37:55.112Z,62.89
2023-04-06T19:40:26.073Z,63.07
2023-04-06T19:42:57.414Z,63.04
2023-04-06T19:45:30.355Z,63.54
2023-04-06T19:48:01.705Z,63.43
2023-04-06T19:50:32.666Z,63.93
2023-04-06T19:53:03.020Z,63.78
2023-04-06T19:55:33.164Z,63.55
2023-04-06T19:58:04.598Z,64.16
2023-04-06T20:00:36.487Z,64.06
2023-04-06T20:03:08.812Z,63.73
2023-04-06T20:05:39.447Z,63.88
2023-04-06T20:08:09.715Z,63.78
2023-04-06T20:10:39.862Z,64.01
2023-04-06T20:13:10.253Z,63.79
2023-04-06T20:15:40.638Z,64.12
2023-04-06T20:18:10.907Z,63.80
2023-04-06T20:20:41.361Z,64.18
2023-04-06T20:23:13.023Z,64.13
2023-04-06T20:25:43.466Z,64.03
2023-04-06T20:28:14.041Z,63.93
2023-04-06T20:30:44.252Z,64.46
2023-04-06T20:33:14.667Z,64.58
2023-04-06T20:35:44.959Z,64.49
2023-04-06T20:38:15.863Z,64.16
2023-04-06T20:40:48.369Z,64.17
2023-04-06T20:43:20.797Z,64.15
2023-04-06T20:45:52.701Z,64.33
2023-04-06T20:48:23.430Z,64.38
2023-04-06T20:50:53.626Z,63.99
2023-04-06T20:53:24.277Z,64.19
2023-04-06T20:55:54.821Z,64.53
2023-04-06T20:58:26.977Z,63.87
2023-04-06T21:00:57.034Z,64.44
2023-04-06T21:03:27.363Z,64.26
2023-04-06T21:05:59.217Z,64.40
2023-04-06T21:08:29.501Z,64.74
2023-04-06T21:11:00.281Z,64.72
2023-04-06T21:13:30.632Z,64.55
2023-04-06T21:16:01.771Z,64.41
2023-04-06T21:18:32.263Z,64.51
2023-04-06T21:21:02.610Z,64.49
2023-04-06T21:23:32.832Z,64.75
2023-04-06T21:26:03.689Z,64.62
2023-04-06T21:28:34.149Z,65.21
2023-04-06T21:31:08.109Z,65.27
2023-04-06T21:33:38.391Z,64.88
2023-04-06T21:36:09.201Z,64.85
2023-04-06T21:38:39.332Z,65.00
2023-04-06T21:41:09.794Z,65.07
2023-04-06T21:43:40.075Z,65.04
2023-04-06T21:46:11.291Z,65.37
2023-04-06T21:48:41.498Z,65.51
2023-04-06T21:51:17.906Z,65.53
2023-04-06T21:53:48.199Z,65.65
2023-04-06T21:56:23.335Z,65.58
2023-04-06T21:58:54.346Z,65.31
2023-04-06T22:01:24.555Z,65.28
2023-04-06T22:03:58.346Z,65.78
2023-04-06T22:06:30.162Z,65.64
2023-04-06T22:09:02.754Z,65.64
2023-04-06T22:11:33.018Z,65.59
2023-04-06T22:14:05.956Z,65.39
2023-04-06T22:16:36.603Z,65.29
2023-04-06T22:19:07.079Z,65.38
2023-04-06T22:21:37.375Z,65.59
2023-04-06T22:24:07.809Z,65.58
2023-04-06T22:26:38.132Z,65.10
2023-04-06T22:29:08.344Z,65.36
2023-04-06T22:31:38.590Z,65.29
2023-04-06T22:34:09.043Z,65.25
2023-04-06T22:36:39.311Z,65.70
2023-04-06T22:39:09.662Z,65.64
2023-04-06T22:41:40.108Z,65.32
2023-04-06T22:44:10.184Z,65.55
2023-04-06T22:46:40.481Z,65.46
2023-04-06T22:49:10.758Z,66.05
2023-04-06T22:51:42.215Z,65.58
2023-04-06T22:54:12.736Z,65.80
2023-04-06T22:56:44.109Z,65.40
2023-04-06T22:59:14.284Z,65.48
2023-04-06T23:01:44.689Z,65.62
2023-04-06T23:04:15.038Z,65.38
2023-04-06T23:06:45.345Z,66.05
2023-04-06T23:09:15.797Z,66.03
2023-04-06T23:11:46.222Z,65.71
2023-04-06T23:14:17.200Z,66.42
2023-04-06T23:16:47.816Z,66.32
2023-04-06T23:19:18.299Z,66.27
2023-04-06T23:21:48.425Z,66.59
2023-04-06T23:24:18.584Z,66.48
2023-04-06T23:26:48.606Z,66.59
2023-04-06T23:29:18.677Z,67.00
2023-04-06T23:31:48.919Z,66.95
2023-04-06T23:34:19.100Z,66.83
2023-04-06T23:36:49.320Z,67.25
2023-04-06T23:39:19.628Z,67.17
2023-04-06T23:41:49.686Z,67.48
2023-04-06T23:44:19.877Z,67.57
2023-04-06T23:46:50.165Z,67.32
2023-04-06T23:49:20.405Z,68.13
2023-04-06T23:51:50.604Z,67.33
2023-04-06T23:54:20.706Z,67.71
2023-04-06T23:56:52.147Z,67.86
2023-04-06T23:59:22.451Z,67.70
